Time;durP1;ratioP1;P1;durP2;ratioP2;P2;SDS_P1;SDS_P2;PMS_P1;PMS_P2;Temp;Humidity;BMP_temperature;BMP_pressure;BME280_temperature;BME280_humidity;BME280_pressure;Samples;Min_cycle;Max_cycle;Signal;HPM_P1;HPM_P2
2023/03/17 00:01:08;;;;;;;10.67;6.07;;;;;;;3.68;88.52;100247.38;5024704;28;20586;-72
2023/03/17 00:03:40;;;;;;;10.43;6.10;;;;;;;3.61;88.54;100236.59;5026992;28;20227;-75
2023/03/17 00:06:16;;;;;;;9.20;5.90;;;;;;;3.55;88.74;100241.59;5027032;28;20671;-72
2023/03/17 00:08:45;;;;;;;12.67;7.80;;;;;;;3.49;89.99;100230.88;5028449;28;20203;-71
2023/03/17 00:11:13;;;;;;;11.77;6.87;;;;;;;3.50;90.66;100236.16;5024784;28;20238;-71
2023/03/17 00:13:40;;;;;;;9.03;6.40;;;;;;;3.47;91.06;100242.19;5027167;28;20727;-71
2023/03/17 00:16:15;;;;;;;10.33;6.23;;;;;;;3.61;89.78;100239.22;5025849;28;20204;-72
2023/03/17 00:18:42;;;;;;;8.67;5.60;;;;;;;3.55;89.87;100244.19;5025076;28;20203;-71
2023/03/17 00:21:13;;;;;;;9.33;5.80;;;;;;;3.42;90.07;100235.00;5025862;28;20249;-71
2023/03/17 00:23:42;;;;;;;9.37;5.53;;;;;;;3.33;90.60;100232.00;5022598;28;20684;-71
2023/03/17 00:26:09;;;;;;;9.10;5.30;;;;;;;3.24;91.08;100232.56;5026202;28;20218;-71
2023/03/17 00:28:36;;;;;;;11.30;6.47;;;;;;;3.20;91.22;100234.94;5030458;28;20233;-70
2023/03/17 00:31:12;;;;;;;9.63;5.53;;;;;;;3.14;91.61;100244.34;5027966;28;20242;-72
2023/03/17 00:33:38;;;;;;;8.43;5.93;;;;;;;3.10;92.04;100229.34;5023092;28;20199;-71
2023/03/17 00:36:06;;;;;;;10.93;5.93;;;;;;;3.22;91.92;100233.31;5026671;28;20247;-73
2023/03/17 00:38:32;;;;;;;10.73;6.70;;;;;;;3.17;92.15;100242.69;5029354;28;20195;-71
2023/03/17 00:41:00;;;;;;;11.90;6.90;;;;;;;3.18;92.08;100239.22;5022164;28;20301;-72
2023/03/17 00:43:26;;;;;;;10.23;6.10;;;;;;;3.34;90.99;100245.16;5029366;28;20204;-70
2023/03/17 00:45:55;;;;;;;11.57;6.90;;;;;;;3.32;91.06;100246.81;5023595;28;20216;-70
2023/03/17 00:48:23;;;;;;;12.40;6.83;;;;;;;3.18;91.39;100245.34;5024732;28;20202;-71
2023/03/17 00:50:49;;;;;;;10.47;6.37;;;;;;;3.01;91.98;100234.22;5022354;28;20221;-71
2023/03/17 00:53:18;;;;;;;10.87;6.57;;;;;;;3.00;92.57;100231.53;5026477;28;20840;-71
2023/03/17 00:55:45;;;;;;;8.47;6.07;;;;;;;2.96;92.63;100230.53;5017827;28;20192;-71
2023/03/17 00:58:17;;;;;;;9.30;5.67;;;;;;;3.09;92.22;100216.22;5023733;28;20553;-72
2023/03/17 01:00:44;;;;;;;9.73;5.73;;;;;;;3.08;91.92;100210.09;5027372;28;20722;-71
2023/03/17 01:03:11;;;;;;;9.00;5.53;;;;;;;3.11;91.88;100211.94;5024948;28;20203;-71
2023/03/17 01:05:39;;;;;;;9.97;5.63;;;;;;;3.20;92.05;100209.69;5023738;28;20709;-71
2023/03/17 01:08:06;;;;;;;9.67;6.07;;;;;;;3.31;90.96;100217.97;5026911;28;20206;-71
2023/03/17 01:10:32;;;;;;;9.80;5.40;;;;;;;3.22;91.66;100210.66;5021416;28;20711;-71
2023/03/17 01:12:59;;;;;;;8.47;5.30;;;;;;;3.15;91.68;100211.22;5025467;28;20195;-71
2023/03/17 01:15:30;;;;;;;8.13;5.33;;;;;;;3.11;92.02;100210.22;5019549;28;20235;-72
2023/03/17 01:18:01;;;;;;;6.80;4.33;;;;;;;3.07;92.26;100205.69;5023950;28;20214;-70
2023/03/17 01:20:31;;;;;;;8.87;5.20;;;;;;;3.24;91.90;100208.09;5019814;28;20223;-71
2023/03/17 01:22:59;;;;;;;7.37;4.63;;;;;;;3.34;91.22;100198.06;5018667;28;20258;-71
2023/03/17 01:25:26;;;;;;;8.47;5.27;;;;;;;3.27;91.15;100192.53;5019773;28;20222;-74
2023/03/17 01:27:58;;;;;;;8.83;4.57;;;;;;;3.30;91.02;100188.28;5035184;28;20663;-70
2023/03/17 01:30:27;;;;;;;6.87;4.70;;;;;;;3.27;90.81;100177.72;5013666;28;20231;-71
2023/03/17 01:32:55;;;;;;;8.10;5.00;;;;;;;3.26;90.77;100173.31;5024835;28;20247;-71
2023/03/17 01:35:24;;;;;;;8.80;5.03;;;;;;;3.32;90.55;100181.41;5028380;28;20200;-71
2023/03/17 01:37:52;;;;;;;8.10;5.30;;;;;;;3.39;90.46;100172.94;5026243;28;20209;-70
2023/03/17 01:40:22;;;;;;;8.07;5.00;;;;;;;3.29;90.90;100169.91;5018056;28;20225;-72
2023/03/17 01:43:12;;;;;;;8.67;4.83;;;;;;;3.20;91.30;100169.53;5026827;28;20654;-71
2023/03/17 01:46:12;;;;;;;8.37;4.83;;;;;;;3.17;91.25;100162.47;5022551;28;20222;-72
2023/03/17 01:49:04;;;;;;;8.23;4.40;;;;;;;2.98;91.79;100163.47;5020719;28;20206;-71
2023/03/17 01:51:49;;;;;;;7.40;4.60;;;;;;;2.85;92.67;100165.56;5027053;28;20229;-70
2023/03/17 01:54:33;;;;;;;8.03;5.13;;;;;;;2.72;93.64;100156.28;5019166;28;20499;-71
2023/03/17 01:57:08;;;;;;;6.83;4.77;;;;;;;2.52;94.16;100163.34;5023013;28;20603;-71
2023/03/17 01:59:41;;;;;;;7.47;4.90;;;;;;;2.61;94.31;100165.44;5027576;28;20682;-73
2023/03/17 02:02:10;;;;;;;7.47;4.67;;;;;;;2.50;95.09;100172.84;5024566;28;20705;-71
2023/03/17 02:04:37;;;;;;;8.03;4.23;;;;;;;2.56;95.18;100174.81;5020133;28;20211;-74
2023/03/17 02:07:05;;;;;;;9.03;4.90;;;;;;;2.48;95.44;100183.22;5031152;28;20213;-71
2023/03/17 02:09:32;;;;;;;8.07;4.50;;;;;;;2.32;96.25;100167.72;5033005;28;20230;-71
2023/03/17 02:12:01;;;;;;;7.30;4.80;;;;;;;2.26;96.53;100171.78;5025049;28;20256;-71
2023/03/17 02:14:28;;;;;;;6.70;4.60;;;;;;;2.16;97.13;100176.63;5029316;28;20311;-71
2023/03/17 02:16:55;;;;;;;8.53;5.20;;;;;;;2.21;96.99;100174.19;5024578;28;20671;-72
2023/03/17 02:19:21;;;;;;;9.50;5.07;;;;;;;2.19;97.31;100168.91;5034912;28;20286;-71
2023/03/17 02:21:56;;;;;;;7.83;4.70;;;;;;;2.27;97.17;100171.84;5028780;28;20222;-71
2023/03/17 02:24:36;;;;;;;7.53;4.83;;;;;;;2.49;96.05;100169.31;5027505;28;20272;-72
2023/03/17 02:27:10;;;;;;;7.97;4.77;;;;;;;2.62;95.11;100155.03;5031870;28;20195;-70
2023/03/17 02:29:37;;;;;;;6.23;4.30;;;;;;;2.63;94.87;100150.69;5025243;28;20203;-71
2023/03/17 02:32:04;;;;;;;7.50;4.27;;;;;;;2.58;94.98;100134.84;5027395;28;20268;-71
2023/03/17 02:34:31;;;;;;;8.30;5.07;;;;;;;2.56;95.27;100122.53;5035271;28;20269;-71
2023/03/17 02:36:58;;;;;;;6.03;4.33;;;;;;;2.58;95.33;100111.31;5032998;28;20270;-72
2023/03/17 02:39:24;;;;;;;7.23;4.37;;;;;;;2.58;95.53;100128.72;5019805;28;20586;-71
2023/03/17 02:41:51;;;;;;;7.50;4.13;;;;;;;2.52;95.75;100111.06;5025824;28;20838;-71
2023/03/17 02:44:18;;;;;;;7.80;4.70;;;;;;;2.71;94.91;100116.19;5035298;28;20751;-71
2023/03/17 02:46:45;;;;;;;5.37;4.00;;;;;;;2.80;94.28;100107.81;5028080;28;20198;-71
2023/03/17 02:49:12;;;;;;;9.67;4.67;;;;;;;2.69;94.74;100124.81;5031583;28;20230;-71
2023/03/17 02:51:39;;;;;;;8.10;4.30;;;;;;;2.57;94.66;100134.78;5032791;28;20268;-71
2023/03/17 02:54:05;;;;;;;6.60;4.13;;;;;;;2.51;94.72;100136.31;5027136;28;20262;-71
2023/03/17 02:56:31;;;;;;;7.13;3.80;;;;;;;2.41;95.00;100149.81;5027644;28;20194;-71
2023/03/17 02:58:58;;;;;;;5.17;3.70;;;;;;;2.28;94.99;100141.38;5023147;28;20196;-71
2023/03/17 03:01:25;;;;;;;8.30;4.53;;;;;;;2.10;95.84;100137.19;5025539;28;20221;-72
2023/03/17 03:03:52;;;;;;;6.63;4.40;;;;;;;1.93;96.84;100137.25;5020916;28;20288;-71
2023/03/17 03:06:18;;;;;;;9.33;4.10;;;;;;;1.89;97.78;100131.91;5022698;28;20251;-73
2023/03/17 03:08:44;;;;;;;6.57;4.50;;;;;;;1.81;98.42;100135.91;5028894;28;20209;-71
2023/03/17 03:11:11;;;;;;;6.80;4.37;;;;;;;1.73;99.01;100131.19;5031177;28;20259;-71
2023/03/17 03:13:37;;;;;;;6.60;4.43;;;;;;;1.68;99.35;100133.59;5023072;28;20201;-71
2023/03/17 03:16:04;;;;;;;8.43;4.90;;;;;;;1.74;99.31;100135.56;5026062;28;20205;-71
2023/03/17 03:18:31;;;;;;;8.57;4.57;;;;;;;1.85;99.16;100148.28;5024551;28;20223;-72
2023/03/17 03:20:58;;;;;;;7.67;4.37;;;;;;;1.85;98.54;100156.09;5029818;28;20699;-72
2023/03/17 03:23:24;;;;;;;7.57;4.43;;;;;;;1.77;98.49;100151.38;5019090;28;20206;-71
2023/03/17 03:25:50;;;;;;;6.20;3.93;;;;;;;1.60;98.88;100154.94;5025109;28;20250;-71
2023/03/17 03:28:17;;;;;;;7.63;4.63;;;;;;;1.45;99.45;100150.81;5028099;28;20195;-71
2023/03/17 03:30:44;;;;;;;6.83;4.30;;;;;;;1.32;100.00;100142.38;5030141;28;20246;-71
2023/03/17 03:33:12;;;;;;;7.10;4.13;;;;;;;1.17;100.00;100146.03;5024759;28;20207;-73
2023/03/17 03:35:39;;;;;;;9.10;4.37;;;;;;;1.06;100.00;100134.22;5023294;28;20191;-71
2023/03/17 03:38:06;;;;;;;5.87;4.40;;;;;;;0.97;100.00;100123.34;5024956;28;20196;-71
2023/03/17 03:40:33;;;;;;;6.80;4.20;;;;;;;1.00;100.00;100117.41;5023249;28;20266;-71
2023/03/17 03:42:59;;;;;;;6.43;4.03;;;;;;;1.08;100.00;100122.13;5027681;28;20226;-71
2023/03/17 03:45:38;;;;;;;9.50;4.23;;;;;;;1.24;100.00;100132.47;5028978;28;20223;-71
2023/03/17 03:48:04;;;;;;;6.80;4.43;;;;;;;1.38;100.00;100135.72;5029708;28;20206;-71
2023/03/17 03:50:31;;;;;;;5.73;4.23;;;;;;;1.38;100.00;100125.28;5020994;28;20600;-70
2023/03/17 03:52:58;;;;;;;5.87;4.07;;;;;;;1.23;100.00;100133.31;5017439;28;20241;-72
2023/03/17 03:55:24;;;;;;;6.93;4.13;;;;;;;1.27;100.00;100139.56;5026598;28;20286;-71
2023/03/17 03:57:51;;;;;;;7.47;4.40;;;;;;;1.20;100.00;100132.25;5024533;28;20203;-71
2023/03/17 04:00:17;;;;;;;7.17;4.20;;;;;;;1.06;100.00;100120.28;5025504;28;20211;-72
2023/03/17 04:02:45;;;;;;;7.33;4.50;;;;;;;1.08;100.00;100129.06;5023845;28;20205;-70
2023/03/17 04:05:13;;;;;;;7.70;4.23;;;;;;;1.06;100.00;100120.28;5026297;28;20237;-71
2023/03/17 04:07:40;;;;;;;6.40;4.43;;;;;;;0.98;100.00;100122.53;5017481;28;20197;-71
2023/03/17 04:10:07;;;;;;;8.67;4.50;;;;;;;1.05;100.00;100123.72;5028972;28;20234;-72
2023/03/17 04:12:34;;;;;;;8.00;5.07;;;;;;;0.99;100.00;100119.13;5028643;28;20258;-71
2023/03/17 04:15:01;;;;;;;7.70;4.40;;;;;;;0.85;100.00;100115.88;5028751;28;20212;-70
2023/03/17 04:17:27;;;;;;;8.83;4.77;;;;;;;0.75;100.00;100113.63;5030719;28;20195;-71
2023/03/17 04:19:53;;;;;;;6.70;4.60;;;;;;;0.88;100.00;100104.69;5020985;28;20245;-71
2023/03/17 04:22:20;;;;;;;7.40;4.83;;;;;;;1.17;100.00;100114.72;5017557;28;20200;-73
2023/03/17 04:24:46;;;;;;;8.60;4.60;;;;;;;1.15;100.00;100120.69;5022492;28;20218;-71
2023/03/17 04:27:14;;;;;;;8.67;5.00;;;;;;;1.15;100.00;100124.19;5027010;28;20195;-70
2023/03/17 04:29:41;;;;;;;8.30;5.27;;;;;;;1.08;100.00;100136.88;5023413;28;20658;-71
2023/03/17 04:32:10;;;;;;;7.67;4.83;;;;;;;1.00;100.00;100130.44;5022471;28;20235;-71
2023/03/17 04:34:36;;;;;;;9.93;4.70;;;;;;;0.87;100.00;100123.75;5028403;28;20200;-71
2023/03/17 04:37:03;;;;;;;12.93;4.50;;;;;;;0.83;100.00;100127.03;5022783;28;20572;-71
2023/03/17 04:39:29;;;;;;;7.97;4.97;;;;;;;0.83;100.00;100127.94;5027986;28;20240;-72
2023/03/17 04:41:56;;;;;;;8.83;5.20;;;;;;;0.98;100.00;100135.56;5025158;28;20598;-70
2023/03/17 04:44:22;;;;;;;6.90;4.43;;;;;;;0.94;100.00;100139.75;5022285;28;20202;-70
2023/03/17 04:46:49;;;;;;;8.43;4.70;;;;;;;0.77;100.00;100147.56;5029009;28;20279;-71
2023/03/17 04:49:15;;;;;;;9.23;4.63;;;;;;;0.62;100.00;100153.84;5017718;28;20228;-70
2023/03/17 04:51:41;;;;;;;6.30;4.23;;;;;;;0.50;100.00;100140.22;5019644;28;20257;-73
2023/03/17 04:54:08;;;;;;;8.27;5.23;;;;;;;0.42;100.00;100140.66;5025110;28;20698;-71
2023/03/17 04:56:35;;;;;;;6.97;4.70;;;;;;;0.42;100.00;100125.03;5027644;28;20693;-70
2023/03/17 04:59:02;;;;;;;9.97;4.97;;;;;;;0.46;100.00;100117.44;5023257;28;20271;-70
2023/03/17 05:01:28;;;;;;;7.87;4.83;;;;;;;0.48;100.00;100114.91;5019976;28;20746;-71
2023/03/17 05:03:55;;;;;;;8.10;5.07;;;;;;;0.41;100.00;100116.34;5023936;28;20219;-71
2023/03/17 05:06:21;;;;;;;9.30;4.77;;;;;;;0.45;100.00;100135.59;5029974;28;20226;-71
2023/03/17 05:08:48;;;;;;;8.20;5.33;;;;;;;0.39;100.00;100140.50;5022071;28;20242;-70
2023/03/17 05:11:15;;;;;;;7.03;4.77;;;;;;;0.27;100.00;100139.06;5023302;28;20231;-72
2023/03/17 05:13:41;;;;;;;9.13;5.23;;;;;;;0.21;100.00;100148.28;5025977;28;20619;-70
2023/03/17 05:16:08;;;;;;;8.80;4.33;;;;;;;0.06;100.00;100147.53;5024881;28;20195;-70
2023/03/17 05:18:36;;;;;;;8.03;4.67;;;;;;;-0.07;100.00;100157.28;5020616;28;20230;-71
2023/03/17 05:21:04;;;;;;;7.30;4.27;;;;;;;-0.14;100.00;100155.19;5023643;28;20215;-70
2023/03/17 05:23:31;;;;;;;7.07;4.57;;;;;;;-0.19;100.00;100158.38;5024451;28;20206;-71
2023/03/17 05:25:58;;;;;;;10.03;4.87;;;;;;;-0.03;100.00;100161.81;5021730;28;20636;-74
2023/03/17 05:28:25;;;;;;;10.40;5.13;;;;;;;-0.06;100.00;100156.47;5019393;28;20230;-71
2023/03/17 05:30:52;;;;;;;8.40;4.67;;;;;;;-0.12;100.00;100163.97;5027429;28;20223;-71
2023/03/17 05:33:19;;;;;;;9.23;4.60;;;;;;;-0.07;100.00;100154.69;5021961;28;20284;-71
2023/03/17 05:35:46;;;;;;;11.03;6.40;;;;;;;0.15;100.00;100161.00;5024633;28;20198;-71
2023/03/17 05:38:14;;;;;;;9.43;5.40;;;;;;;0.17;100.00;100154.16;5027293;28;20208;-71
2023/03/17 05:40:41;;;;;;;9.73;4.70;;;;;;;0.14;100.00;100138.38;5027666;28;20250;-71
2023/03/17 05:43:08;;;;;;;9.63;5.27;;;;;;;0.15;100.00;100146.28;5019058;28;20203;-71
2023/03/17 05:45:34;;;;;;;8.90;5.23;;;;;;;0.08;100.00;100151.09;5029251;28;20369;-71
2023/03/17 05:48:01;;;;;;;12.80;5.63;;;;;;;0.27;100.00;100152.09;5023839;28;20231;-71
2023/03/17 05:50:27;;;;;;;9.37;5.87;;;;;;;0.25;100.00;100148.50;5023805;28;20311;-71
2023/03/17 05:52:53;;;;;;;8.07;5.23;;;;;;;0.30;100.00;100144.44;5025157;28;20286;-72
2023/03/17 05:55:20;;;;;;;8.60;5.27;;;;;;;0.32;100.00;100142.78;5028405;28;20676;-71
2023/03/17 05:57:47;;;;;;;14.17;5.63;;;;;;;0.59;100.00;100152.78;5024885;28;20195;-72
2023/03/17 06:00:15;;;;;;;11.57;5.67;;;;;;;0.71;100.00;100152.50;5019651;28;20215;-71
2023/03/17 06:02:41;;;;;;;12.60;5.57;;;;;;;0.69;100.00;100147.22;5019666;28;20203;-72
2023/03/17 06:05:08;;;;;;;9.87;5.30;;;;;;;0.61;100.00;100146.84;5018921;28;20666;-71
2023/03/17 06:07:35;;;;;;;10.27;5.07;;;;;;;0.86;100.00;100140.22;5027012;28;20243;-71
2023/03/17 06:10:17;;;;;;;10.03;5.60;;;;;;;0.97;100.00;100132.91;5018955;28;20657;-71
2023/03/17 06:12:43;;;;;;;10.43;6.33;;;;;;;0.96;100.00;100116.38;5020153;28;20226;-71
2023/03/17 06:15:10;;;;;;;10.97;6.00;;;;;;;1.13;100.00;100120.63;5018221;28;20664;-72
2023/03/17 06:17:36;;;;;;;8.37;5.53;;;;;;;1.23;100.00;100112.44;5023259;28;20258;-71
2023/03/17 06:20:04;;;;;;;8.23;5.37;;;;;;;1.24;100.00;100124.66;5024297;28;20257;-71
2023/03/17 06:22:31;;;;;;;9.10;5.27;;;;;;;1.28;100.00;100133.50;5022516;28;20203;-73
2023/03/17 06:24:58;;;;;;;12.40;5.33;;;;;;;1.30;100.00;100131.88;5023518;28;20223;-70
2023/03/17 06:27:24;;;;;;;9.63;5.53;;;;;;;1.40;100.00;100141.00;5022983;28;20638;-73
2023/03/17 06:29:50;;;;;;;8.27;5.17;;;;;;;1.42;100.00;100144.56;5025098;28;20295;-72
2023/03/17 06:32:17;;;;;;;9.17;5.33;;;;;;;1.49;100.00;100149.22;5007738;28;20199;-75
2023/03/17 06:34:47;;;;;;;7.00;4.80;;;;;;;1.55;100.00;100160.84;5024326;28;20218;-71
2023/03/17 06:37:13;;;;;;;8.77;4.90;;;;;;;1.58;100.00;100157.47;5024400;28;20206;-74
2023/03/17 06:39:41;;;;;;;9.63;5.67;;;;;;;2.06;100.00;100161.38;5022234;28;20300;-72
2023/03/17 06:42:07;;;;;;;8.13;5.40;;;;;;;2.63;98.85;100153.31;5023362;28;20242;-73
2023/03/17 06:44:35;;;;;;;10.87;5.67;;;;;;;3.32;94.29;100152.59;5024451;28;20601;-71
2023/03/17 06:47:01;;;;;;;8.37;5.43;;;;;;;3.86;89.23;100150.25;5021932;28;20703;-73
2023/03/17 06:49:28;;;;;;;8.97;5.60;;;;;;;4.14;88.20;100146.91;5026232;28;20667;-73
2023/03/17 06:51:54;;;;;;;9.33;5.20;;;;;;;4.06;87.16;100156.22;5024681;28;20240;-73
2023/03/17 06:54:23;;;;;;;8.10;4.70;;;;;;;4.15;86.68;100151.28;5031643;28;20234;-73
2023/03/17 06:56:51;;;;;;;8.60;4.70;;;;;;;4.43;86.51;100153.16;5026784;28;20211;-72
2023/03/17 06:59:21;;;;;;;8.50;5.70;;;;;;;5.07;82.18;100149.09;5026692;28;20257;-72
2023/03/17 07:01:48;;;;;;;9.10;5.03;;;;;;;5.51;81.93;100148.72;5009850;28;20609;-74
2023/03/17 07:04:15;;;;;;;9.50;5.13;;;;;;;6.16;78.18;100148.84;5019335;28;20258;-74
2023/03/17 07:06:41;;;;;;;7.83;5.40;;;;;;;6.29;75.50;100150.94;5013764;28;20704;-72
2023/03/17 07:09:08;;;;;;;8.17;5.30;;;;;;;6.53;74.42;100148.06;5028149;28;20209;-72
2023/03/17 07:11:35;;;;;;;10.47;5.93;;;;;;;6.28;74.84;100149.16;5028574;28;20245;-72
2023/03/17 07:14:01;;;;;;;10.47;5.80;;;;;;;6.30;75.38;100134.31;5025414;28;20198;-71
2023/03/17 07:16:28;;;;;;;14.47;5.90;;;;;;;6.20;75.80;100140.19;5028295;28;20244;-72
2023/03/17 07:18:54;;;;;;;11.03;5.70;;;;;;;6.17;76.09;100142.72;5020957;28;20280;-73
2023/03/17 07:21:21;;;;;;;12.33;5.60;;;;;;;6.17;76.31;100146.25;5021787;28;20278;-72
2023/03/17 07:23:47;;;;;;;9.20;5.73;;;;;;;6.26;75.05;100148.22;5022693;28;20646;-72
2023/03/17 07:26:13;;;;;;;9.40;5.60;;;;;;;6.35;75.08;100143.22;5027698;28;20224;-72
2023/03/17 07:28:40;;;;;;;9.93;5.80;;;;;;;6.43;75.50;100146.06;5025896;28;20200;-75
2023/03/17 07:31:08;;;;;;;9.10;5.87;;;;;;;6.37;76.50;100144.13;5022752;28;20225;-73
2023/03/17 07:33:34;;;;;;;12.37;5.97;;;;;;;6.47;76.38;100133.03;5027417;28;20402;-77
2023/03/17 07:36:01;;;;;;;11.83;6.43;;;;;;;6.54;75.87;100121.81;5016515;28;20192;-73
2023/03/17 07:38:28;;;;;;;9.60;6.60;;;;;;;6.63;74.81;100123.78;5030319;28;20195;-72
2023/03/17 07:40:54;;;;;;;11.27;7.10;;;;;;;6.69;74.01;100134.44;5025288;28;20908;-71
2023/03/17 07:43:21;;;;;;;10.03;6.30;;;;;;;6.85;73.73;100141.88;5025268;28;20270;-72
2023/03/17 07:45:47;;;;;;;10.33;6.70;;;;;;;7.04;73.76;100142.28;5029609;28;20305;-72
2023/03/17 07:48:14;;;;;;;15.90;7.10;;;;;;;7.18;72.50;100138.22;5027647;28;20200;-71
2023/03/17 07:50:41;;;;;;;15.10;7.70;;;;;;;7.45;70.33;100135.34;5028877;28;20273;-71
2023/03/17 07:53:07;;;;;;;11.20;6.47;;;;;;;7.69;70.38;100134.97;5026117;28;20239;-75
2023/03/17 07:55:35;;;;;;;16.43;6.90;;;;;;;7.92;69.24;100133.69;5027883;28;20195;-73
2023/03/17 07:58:02;;;;;;;12.57;6.63;;;;;;;8.13;68.82;100120.03;5029751;28;20724;-75
2023/03/17 08:00:29;;;;;;;12.60;6.33;;;;;;;8.32;67.55;100110.69;5026087;28;20233;-73
2023/03/17 08:02:56;;;;;;;9.63;6.47;;;;;;;8.52;67.17;100109.34;5025100;28;20203;-73
2023/03/17 08:05:35;;;;;;;8.80;6.00;;;;;;;8.70;65.82;100109.63;5022715;28;20209;-74
2023/03/17 08:08:01;;;;;;;13.07;6.53;;;;;;;8.85;65.56;100111.66;5020494;28;20192;-73
2023/03/17 08:10:28;;;;;;;10.63;5.77;;;;;;;9.07;64.36;100107.56;5020096;28;20223;-74
2023/03/17 08:12:55;;;;;;;10.20;6.10;;;;;;;9.19;64.10;100109.50;5019560;28;20274;-76
2023/03/17 08:15:21;;;;;;;8.93;5.70;;;;;;;9.31;63.08;100107.03;5019302;28;20198;-73
2023/03/17 08:17:47;;;;;;;10.57;6.23;;;;;;;9.49;63.81;100109.91;5021853;28;20192;-73
2023/03/17 08:20:14;;;;;;;7.83;5.87;;;;;;;9.64;62.89;100096.03;5023262;28;20708;-72
2023/03/17 08:22:40;;;;;;;11.83;6.63;;;;;;;9.77;61.54;100102.34;5026203;28;20206;-77
2023/03/17 08:25:08;;;;;;;9.00;6.23;;;;;;;9.88;61.63;100114.81;5028153;28;20200;-75
2023/03/17 08:27:35;;;;;;;10.40;5.80;;;;;;;10.00;61.35;100114.94;5024372;28;20218;-73
2023/03/17 08:30:02;;;;;;;9.50;6.40;;;;;;;10.00;60.41;100122.00;5026804;28;20198;-72
2023/03/17 08:32:29;;;;;;;23.47;10.60;;;;;;;10.19;59.43;100123.09;5023901;28;20780;-74
2023/03/17 08:34:56;;;;;;;13.83;8.13;;;;;;;10.26;59.39;100130.25;5028187;28;20204;-72
2023/03/17 08:37:23;;;;;;;11.27;6.80;;;;;;;10.46;58.89;100127.84;5027494;28;20257;-73
2023/03/17 08:39:49;;;;;;;12.07;6.50;;;;;;;10.62;58.51;100129.72;5029028;28;20252;-74
2023/03/17 08:42:16;;;;;;;14.10;6.87;;;;;;;10.68;57.60;100127.13;5027259;28;20206;-73
2023/03/17 08:44:42;;;;;;;10.33;6.50;;;;;;;10.76;58.34;100113.94;5026378;28;20206;-72
2023/03/17 08:47:09;;;;;;;11.23;6.77;;;;;;;10.86;58.30;100118.47;5025338;28;20245;-72
2023/03/17 08:49:36;;;;;;;13.37;6.83;;;;;;;11.13;57.34;100110.69;5021042;28;20240;-72
2023/03/17 08:52:02;;;;;;;13.60;6.30;;;;;;;11.36;56.75;100121.47;5020437;28;20246;-73
2023/03/17 08:54:29;;;;;;;12.10;6.47;;;;;;;11.55;56.33;100109.19;5023877;28;20207;-71
2023/03/17 08:56:56;;;;;;;10.87;6.40;;;;;;;11.75;54.05;100101.31;5021952;28;20216;-71
2023/03/17 08:59:23;;;;;;;10.60;6.57;;;;;;;11.93;54.22;100106.72;5017364;28;20199;-71
2023/03/17 09:01:49;;;;;;;14.30;7.93;;;;;;;12.14;53.04;100092.63;5023884;28;20273;-71
2023/03/17 09:04:15;;;;;;;12.87;7.27;;;;;;;12.02;52.88;100082.88;5020120;28;20208;-71
2023/03/17 09:06:42;;;;;;;12.07;6.77;;;;;;;11.99;53.28;100076.66;5016277;28;20244;-72
2023/03/17 09:09:29;;;;;;;11.47;7.03;;;;;;;12.28;53.13;100085.56;5018666;28;20244;-74
2023/03/17 09:11:56;;;;;;;16.90;8.20;;;;;;;12.35;51.61;100083.81;5018014;28;20216;-73
2023/03/17 09:14:23;;;;;;;11.70;6.97;;;;;;;12.59;52.03;100081.19;5014873;28;20253;-71
2023/03/17 09:16:49;;;;;;;10.23;6.40;;;;;;;12.66;50.59;100074.97;5019042;28;20344;-72
2023/03/17 09:19:16;;;;;;;14.30;7.20;;;;;;;12.69;50.91;100074.97;5016960;28;20206;-74
2023/03/17 09:21:43;;;;;;;12.17;6.50;;;;;;;12.98;50.35;100074.97;5019466;28;20219;-71
2023/03/17 09:24:10;;;;;;;8.20;5.83;;;;;;;12.86;48.99;100081.19;5013913;28;20693;-73
2023/03/17 09:26:36;;;;;;;14.90;6.00;;;;;;;12.81;48.78;100077.66;5019666;28;20225;-74
2023/03/17 09:29:04;;;;;;;10.70;6.40;;;;;;;12.81;49.25;100077.66;5017940;28;20293;-71
2023/03/17 09:31:31;;;;;;;9.93;6.10;;;;;;;12.96;48.81;100070.53;5017614;28;20219;-71
2023/03/17 09:33:58;;;;;;;8.17;6.00;;;;;;;12.91;47.81;100077.63;5017434;28;20199;-71
2023/03/17 09:36:25;;;;;;;10.40;6.63;;;;;;;13.02;48.21;100065.19;5019969;28;20206;-73
2023/03/17 09:38:51;;;;;;;12.53;6.53;;;;;;;13.31;48.37;100065.19;5020698;28;20995;-71
2023/03/17 09:41:47;;;;;;;12.00;6.47;;;;;;;13.46;46.92;100066.00;5022451;28;20237;-72
2023/03/17 09:44:31;;;;;;;12.63;5.60;;;;;;;13.67;47.21;100050.84;5026871;28;20606;-72
2023/03/17 09:46:57;;;;;;;13.87;6.47;;;;;;;13.63;46.24;100055.31;5029162;28;20223;-74
2023/03/17 09:49:28;;;;;;;12.07;6.53;;;;;;;13.75;47.43;100057.03;5022201;28;20667;-72
2023/03/17 09:51:55;;;;;;;13.20;6.20;;;;;;;13.77;47.07;100056.13;5023804;28;20228;-71
2023/03/17 09:54:33;;;;;;;8.17;6.13;;;;;;;13.86;45.76;100048.97;5025350;28;20746;-74
2023/03/17 09:57:08;;;;;;;9.10;5.93;;;;;;;13.72;46.64;100062.34;5026810;28;20204;-73
2023/03/17 09:59:40;;;;;;;10.40;6.40;;;;;;;13.80;46.50;100071.19;5026215;28;20202;-70
2023/03/17 10:02:22;;;;;;;10.70;5.57;;;;;;;14.20;45.86;100057.66;5027330;28;20222;-74
2023/03/17 10:04:49;;;;;;;9.47;6.17;;;;;;;14.27;45.55;100060.25;5018744;28;20833;-71
2023/03/17 10:07:21;;;;;;;11.17;6.23;;;;;;;14.06;45.79;100060.41;5023616;28;20256;-72
2023/03/17 10:09:59;;;;;;;9.60;6.27;;;;;;;14.22;45.62;100062.06;5026245;28;20191;-71
2023/03/17 10:12:40;;;;;;;12.93;6.23;;;;;;;14.03;46.25;100063.97;5025372;28;20576;-72
2023/03/17 10:15:37;;;;;;;11.73;6.03;;;;;;;13.94;46.07;100052.47;5022130;28;20231;-72
2023/03/17 10:18:12;;;;;;;9.03;5.40;;;;;;;14.21;45.23;100062.97;5025746;28;20568;-71
2023/03/17 10:20:50;;;;;;;8.53;5.80;;;;;;;14.13;45.66;100056.81;5021705;28;20261;-75
2023/03/17 10:23:22;;;;;;;7.57;5.37;;;;;;;14.27;44.57;100049.59;5026143;28;20199;-74
2023/03/17 10:25:48;;;;;;;11.47;5.60;;;;;;;14.40;44.06;100037.06;5030579;28;20196;-77
2023/03/17 10:28:27;;;;;;;9.33;5.30;;;;;;;14.68;44.08;100033.31;5028811;28;20219;-80
2023/03/17 10:30:56;;;;;;;6.60;4.67;;;;;;;15.03;43.23;100040.97;5028134;28;20261;-78
2023/03/17 10:33:22;;;;;;;8.67;5.60;;;;;;;15.26;43.16;100032.75;5028202;28;20231;-84
2023/03/17 10:35:49;;;;;;;10.20;5.93;;;;;;;15.21;42.91;100036.31;5025579;28;20255;-81
2023/03/17 10:38:23;;;;;;;9.93;5.50;;;;;;;15.47;42.77;100034.25;5020573;28;20193;-76
2023/03/17 10:41:04;;;;;;;8.60;5.93;;;;;;;15.44;42.57;100046.75;5018346;28;20250;-74
2023/03/17 10:43:44;;;;;;;9.97;5.60;;;;;;;15.54;41.78;100043.06;5025557;28;20203;-74
2023/03/17 10:46:23;;;;;;;7.80;5.57;;;;;;;15.55;41.82;100045.72;5028245;28;20210;-74
2023/03/17 10:48:52;;;;;;;12.60;6.50;;;;;;;15.54;42.94;100043.94;5024345;28;20290;-73
2023/03/17 10:51:29;;;;;;;14.47;6.37;;;;;;;15.59;41.89;100041.25;5024377;28;20215;-72
2023/03/17 10:54:00;;;;;;;12.77;7.10;;;;;;;15.56;41.80;100035.91;5031075;28;20231;-74
2023/03/17 10:56:34;;;;;;;11.50;5.43;;;;;;;15.75;42.38;100029.50;5028344;28;20253;-72
2023/03/17 10:59:06;;;;;;;11.63;5.57;;;;;;;16.02;41.85;100030.03;5029526;28;20230;-73
2023/03/17 11:01:46;;;;;;;8.70;5.83;;;;;;;16.12;40.81;100034.31;5025905;28;20717;-72
2023/03/17 11:04:34;;;;;;;10.57;5.60;;;;;;;16.16;41.37;100041.38;5026595;28;20290;-72
2023/03/17 11:07:19;;;;;;;9.97;5.80;;;;;;;15.76;40.63;100023.25;5029346;28;20292;-72
2023/03/17 11:09:51;;;;;;;8.67;5.90;;;;;;;15.64;42.15;100021.63;5023900;28;20678;-74
2023/03/17 11:12:38;;;;;;;8.57;5.83;;;;;;;15.86;41.68;100027.53;5020263;28;20206;-73
2023/03/17 11:15:09;;;;;;;11.87;5.47;;;;;;;16.11;42.17;100017.41;5019010;28;20633;-73
2023/03/17 11:17:35;;;;;;;8.53;5.53;;;;;;;16.43;40.91;100022.25;5020979;28;20215;-73
2023/03/17 11:20:11;;;;;;;11.40;5.80;;;;;;;16.46;40.93;100027.53;5022744;28;20676;-76
2023/03/17 11:22:41;;;;;;;12.87;6.37;;;;;;;16.71;40.98;100030.69;5019156;28;20875;-74
2023/03/17 11:25:14;;;;;;;7.00;5.20;;;;;;;16.68;39.25;100024.53;5017539;28;20195;-73
2023/03/17 11:27:49;;;;;;;8.67;5.30;;;;;;;16.54;39.64;100019.38;5035036;28;20247;-75
2023/03/17 11:30:27;;;;;;;9.17;5.70;;;;;;;16.77;39.53;100019.88;5020829;28;20239;-73
2023/03/17 11:33:32;;;;;;;9.73;5.67;;;;;;;16.88;39.48;100007.22;5020340;28;20693;-71
2023/03/17 11:36:08;;;;;;;8.90;5.93;;;;;;;16.84;39.11;100004.66;5017755;28;20195;-72